Hestrud (Nord, France) - 208 m
Donnes mto: Actuelle vendredi, 19/04/2019 02:17
Date Horaire Temp Out Temp. E. min Temp. E. max Temp. Sol 1 Hum Out Hum. Sol 1 Press Rain Wind Dir Dir Solar Ev.Tr. UV Hi Solar Rad Dew Point Windchill Wind (Gust)
19/04/2019 02:17 6,8 C 6,8 C 6,8 C 5,0 C 82 % 112 cb 1023,4 hPa 0,0 mm 0,0 km/h (0 Bft) N 0 0 min 0,025 mm 0,0 UV-I 0 W/m 3,9 C 6,8 C 0,0 km/h (0 Bft)
19/04/2019 01:17 8,1 C 8,1 C 8,1 C 5,6 C 77 % 111 cb 1023,4 hPa 0,0 mm 0,0 km/h (0 Bft) N 0 0 min 0,025 mm 0,0 UV-I 0 W/m 4,3 C 8,1 C 0,0 km/h (0 Bft)
19/04/2019 00:17 9,8 C 9,8 C 9,8 C 6,7 C 69 % 110 cb 1023,3 hPa 0,0 mm 0,0 km/h (0 Bft) N 0 0 min 0,025 mm 0,0 UV-I 0 W/m 4,4 C 9,8 C 0,0 km/h (0 Bft)
18/04/2019 23:16 11,4 C 11,4 C 11,4 C 8,3 C 63 % 110 cb 1023,0 hPa 0,0 mm 0,0 km/h (0 Bft) N 0 0 min 0,025 mm 0,0 UV-I 0 W/m 4,6 C 11,4 C 0,0 km/h (0 Bft)
18/04/2019 22:16 13,2 C 13,2 C 13,2 C 10,0 C 57 % 109 cb 1022,6 hPa 0,0 mm 0,0 km/h (0 Bft) N-NE 22 0 min 0,051 mm 0,0 UV-I 0 W/m 4,9 C 13,2 C 1,6 km/h (1 Bft)
18/04/2019 21:16 15,6 C 15,6 C 15,7 C 12,2 C 49 % 109 cb 1022,1 hPa 0,0 mm 1,6 km/h (1 Bft) E-NE 67 0 min 0,025 mm 0,0 UV-I 0 W/m 4,9 C 15,6 C 3,2 km/h (1 Bft)
18/04/2019 20:16 18,1 C 18,1 C 18,1 C 15,0 C 40 % 110 cb 1021,5 hPa 0,0 mm 1,6 km/h (1 Bft) E 90 0 min 0,102 mm 0,0 UV-I 11 W/m 4,3 C 18,1 C 3,2 km/h (1 Bft)
18/04/2019 19:16 20,3 C 20,3 C 20,3 C 18,3 C 34 % 114 cb 1021,1 hPa 0,0 mm 8,0 km/h (2 Bft) E-NE 67 38 min 0,254 mm 0,0 UV-I 67 W/m 3,9 C 19,7 C 16,1 km/h (3 Bft)
18/04/2019 18:16 20,9 C 20,9 C 20,9 C 19,4 C 32 % 113 cb 1020,8 hPa 0,0 mm 14,5 km/h (3 Bft) NE 45 60 min 0,356 mm 0,7 UV-I 287 W/m 3,6 C 18,5 C 24,1 km/h (4 Bft)
18/04/2019 17:16 21,2 C 21,2 C 21,2 C 20,0 C 34 % 111 cb 1020,7 hPa 0,0 mm 14,5 km/h (3 Bft) E-NE 67 60 min 0,432 mm 1,4 UV-I 439 W/m 4,7 C 18,8 C 20,9 km/h (4 Bft)
18/04/2019 16:16 21,2 C 21,2 C 21,2 C 20,6 C 33 % 109 cb 1021,0 hPa 0,0 mm 9,7 km/h (2 Bft) NE 45 60 min 0,508 mm 2,1 UV-I 571 W/m 4,3 C 20,1 C 14,5 km/h (3 Bft)
18/04/2019 15:16 20,8 C 20,8 C 20,8 C 20,6 C 32 % 108 cb 1021,1 hPa 0,0 mm 12,9 km/h (3 Bft) E-NE 67 60 min 0,533 mm 3,0 UV-I 680 W/m 3,5 C 18,7 C 24,1 km/h (4 Bft)
18/04/2019 14:16 20,4 C 20,4 C 20,4 C 20,6 C 37 % 107 cb 1021,1 hPa 0,0 mm 12,9 km/h (3 Bft) E-NE 67 60 min 0,533 mm 3,5 UV-I 732 W/m 5,2 C 18,2 C 20,9 km/h (4 Bft)
18/04/2019 13:16 19,7 C 19,7 C 19,7 C 20,0 C 39 % 107 cb 1021,3 hPa 0,0 mm 12,9 km/h (3 Bft) E-NE 67 60 min 0,483 mm 3,5 UV-I 740 W/m 5,4 C 17,4 C 17,7 km/h (3 Bft)
18/04/2019 12:16 19,3 C 19,3 C 19,3 C 18,9 C 40 % 109 cb 1021,7 hPa 0,0 mm 9,7 km/h (2 Bft) E 90 60 min 0,432 mm 3,1 UV-I 707 W/m 5,4 C 18,0 C 16,1 km/h (3 Bft)
18/04/2019 11:16 18,4 C 18,4 C 18,4 C 17,8 C 41 % 114 cb 1022,1 hPa 0,0 mm 11,3 km/h (2 Bft) S-SE 157 60 min 0,305 mm 2,4 UV-I 568 W/m 4,9 C 16,4 C 19,3 km/h (3 Bft)
18/04/2019 10:16 15,7 C 15,6 C 15,7 C 15,6 C 55 % 119 cb 1022,0 hPa 0,0 mm 11,3 km/h (2 Bft) S-SE 157 60 min 0,178 mm 1,6 UV-I 491 W/m 6,7 C 13,3 C 17,7 km/h (3 Bft)
18/04/2019 09:16 8,8 C 8,7 C 8,8 C 8,3 C 98 % 109 cb 1021,9 hPa 0,0 mm 6,4 km/h (2 Bft) E-NE 67 15 min 0,025 mm 0,7 UV-I 338 W/m 8,5 C 8,8 C 6,4 km/h (2 Bft)
18/04/2019 08:16 5,9 C 5,9 C 5,9 C 5,6 C 98 % 105 cb 1021,6 hPa 0,0 mm 1,6 km/h (1 Bft) E 90 0 min 0,025 mm 0,0 UV-I 54 W/m 5,6 C 5,9 C 1,6 km/h (1 Bft)
18/04/2019 07:16 4,9 C 4,9 C 4,9 C 3,3 C 96 % 101 cb 1021,3 hPa 0,0 mm 0,0 km/h (0 Bft) N 0 0 min 0,000 mm 0,0 UV-I 25 W/m 4,3 C 4,9 C 0,0 km/h (0 Bft)
18/04/2019 06:16 5,5 C 5,5 C 5,6 C 4,4 C 97 % 102 cb 1021,0 hPa 0,0 mm 1,6 km/h (1 Bft) E 90 0 min 0,000 mm 0,0 UV-I 0 W/m 5,1 C 5,5 C 3,2 km/h (1 Bft)
18/04/2019 05:16 4,3 C 4,3 C 4,3 C 2,8 C 95 % 98 cb 1021,0 hPa 0,0 mm 1,6 km/h (1 Bft) E 90 0 min 0,000 mm 0,0 UV-I 0 W/m 3,6 C 4,3 C 3,2 km/h (1 Bft)
18/04/2019 04:16 4,9 C 4,9 C 4,9 C 3,9 C 94 % 98 cb 1021,1 hPa 0,0 mm 0,0 km/h (0 Bft) E 90 0 min 0,000 mm 0,0 UV-I 0 W/m 4,0 C 4,9 C 1,6 km/h (1 Bft)
18/04/2019 03:16 6,2 C 6,2 C 6,3 C 5,0 C 95 % 98 cb 1021,0 hPa 0,0 mm 0,0 km/h (0 Bft) E 90 0 min 0,000 mm 0,0 UV-I 0 W/m 5,5 C 6,2 C 1,6 km/h (1 Bft)
18/04/2019 03:00 6,5 C 6,5 C 6,5 C 5,0 C 95 % 98 cb 1020,8 hPa 0,0 mm 1,6 km/h (1 Bft) E 90 0 min 0,000 mm 0,0 UV-I 0 W/m 5,8 C 6,5 C 3,2 km/h (1 Bft)
_ Min-Heure 04:57 04:57 04:58 05:04 15:11 03:18 17:15 - 03:09 - - - - - - 15:11 04:57 03:13
Minimum _ 4,2 C 4,2 C 4,2 C 2,8 C 30 % 97 cb 1020,7 hPa - 0,0 km/h (0 Bft) - - - - - - 2,6 C 4,2 C 0,0 km/h (0 Bft)
_ Max-Heure 16:37 16:38 16:37 15:02 08:08 10:14 00:25 03:00 17:21 - - 09:02 14:00 13:49 13:49 10:01 16:34 16:11
Maximum _ 21,4 C 21,4 C 21,4 C 21,1 C 98 % 120 cb 1023,4 hPa 0,0 mm 22,5 km/h
NE (4 Bft)
- - 1 min 0,533 mm 3,6 UV-I 745 W/m 9,2 C 21,3 C 32,2 km/h
NE (5 Bft)
Moyenne _ 13,0 C 13,0 C 13,1 C 11,6 C 64 % 107 cb 1021,6 hPa #0,0 mm 4,9 km/h (1 Bft) E-NE - #0 min. #0,075 mm 0,0 UV-I 0 W/m 4,9 C 12,4 C 7,8 km/h (2 Bft)